Time;durP1;ratioP1;P1;durP2;ratioP2;P2;SDS_P1;SDS_P2;PMS_P1;PMS_P2;Temp;Humidity;BMP_temperature;BMP_pressure;BME280_temperature;BME280_humidity;BME280_pressure;Samples;Min_cycle;Max_cycle;Signal;HPM_P1;HPM_P2
2022/10/10 00:01:47;;;;;;;4.07;3.07;;;;;;;8.74;100.00;99170.13;5062935;28;20201;-80
2022/10/10 00:04:16;;;;;;;5.43;3.10;;;;;;;8.58;100.00;99175.41;5067465;28;20335;-80
2022/10/10 00:06:44;;;;;;;4.03;2.90;;;;;;;8.43;100.00;99176.28;5065697;28;20296;-80
2022/10/10 00:09:13;;;;;;;4.73;2.80;;;;;;;8.54;100.00;99173.88;5068830;28;20256;-80
2022/10/10 00:11:41;;;;;;;3.97;2.90;;;;;;;8.54;100.00;99175.66;5109063;28;20191;-80
2022/10/10 00:14:09;;;;;;;6.77;3.40;;;;;;;8.51;100.00;99176.69;5108933;28;20241;-80
2022/10/10 00:16:37;;;;;;;4.73;3.30;;;;;;;8.45;100.00;99174.38;5112297;28;20191;-80
2022/10/10 00:19:08;;;;;;;7.30;3.37;;;;;;;8.45;100.00;99168.25;5115896;28;20195;-80
2022/10/10 00:21:36;;;;;;;5.20;3.50;;;;;;;8.43;100.00;99176.28;5119574;28;20202;-80
2022/10/10 00:24:05;;;;;;;5.70;3.40;;;;;;;8.49;100.00;99172.41;5122187;28;20195;-80
2022/10/10 00:26:34;;;;;;;6.67;3.13;;;;;;;8.58;100.00;99171.91;5109637;28;20218;-81
2022/10/10 00:29:06;;;;;;;4.27;3.07;;;;;;;8.60;100.00;99170.91;5113083;28;20220;-80
2022/10/10 00:31:34;;;;;;;6.50;3.13;;;;;;;8.70;100.00;99163.31;5112329;28;20195;-80
2022/10/10 00:34:02;;;;;;;4.57;3.10;;;;;;;8.65;100.00;99162.72;5116907;28;20198;-80
2022/10/10 00:36:32;;;;;;;7.33;3.53;;;;;;;8.50;100.00;99163.59;5108545;28;20702;-80
2022/10/10 00:39:01;;;;;;;7.53;3.10;;;;;;;8.45;100.00;99160.34;5117840;27;20199;-81
2022/10/10 00:41:29;;;;;;;5.37;3.10;;;;;;;8.30;100.00;99159.38;5111467;28;20195;-80
2022/10/10 00:44:07;;;;;;;6.67;3.10;;;;;;;8.32;100.00;99155.72;5106668;28;20199;-81
2022/10/10 00:46:36;;;;;;;5.87;3.13;;;;;;;8.33;100.00;99160.06;5119164;28;20197;-81
2022/10/10 00:49:09;;;;;;;5.00;2.93;;;;;;;8.40;100.00;99159.75;5117109;28;20248;-80
2022/10/10 00:51:40;;;;;;;6.13;3.30;;;;;;;8.25;100.00;99145.56;5123486;28;20183;-81
2022/10/10 00:54:12;;;;;;;4.53;3.30;;;;;;;8.17;100.00;99151.25;5118293;28;20195;-80
2022/10/10 00:56:44;;;;;;;8.57;3.30;;;;;;;8.49;100.00;99139.00;5115259;28;20195;-80
2022/10/10 00:59:13;;;;;;;5.13;3.10;;;;;;;8.43;100.00;99144.59;5105447;28;20225;-81
2022/10/10 01:01:42;;;;;;;4.30;2.67;;;;;;;8.41;100.00;99145.63;5115784;27;20203;-80
2022/10/10 01:04:34;;;;;;;6.33;2.93;;;;;;;8.44;100.00;99148.09;5111244;28;20187;-80
2022/10/10 01:07:10;;;;;;;4.70;2.60;;;;;;;8.21;100.00;99136.13;5116683;27;20208;-80
2022/10/10 01:09:41;;;;;;;4.33;2.73;;;;;;;8.40;100.00;99139.50;5113580;28;20258;-80
2022/10/10 01:12:20;;;;;;;4.70;2.70;;;;;;;8.33;100.00;99138.09;5108755;28;20183;-80
2022/10/10 01:14:59;;;;;;;3.93;2.33;;;;;;;8.25;100.00;99130.59;5114286;27;20194;-80
2022/10/10 01:17:33;;;;;;;6.47;2.70;;;;;;;8.42;100.00;99129.69;5116212;28;20193;-80
2022/10/10 01:20:47;;;;;;;7.23;2.73;;;;;;;8.51;100.00;99133.63;5110766;28;20195;-80
2022/10/10 01:23:38;;;;;;;2.80;2.17;;;;;;;8.41;100.00;99135.06;5114397;27;20199;-80
2022/10/10 01:26:25;;;;;;;5.27;2.90;;;;;;;8.47;100.00;99135.56;5112835;28;20191;-80
2022/10/10 01:29:00;;;;;;;3.93;2.67;;;;;;;8.45;100.00;99132.16;5114604;28;20248;-80
2022/10/10 01:31:33;;;;;;;4.27;2.90;;;;;;;8.40;100.00;99133.38;5115249;27;20219;-80
2022/10/10 01:34:12;;;;;;;6.30;2.90;;;;;;;8.39;100.00;99132.47;5110680;28;20183;-80
2022/10/10 01:36:48;;;;;;;3.80;2.77;;;;;;;8.45;100.00;99129.53;5050033;28;20254;-81
2022/10/10 01:39:23;;;;;;;4.87;2.40;;;;;;;8.53;100.00;99127.31;5047908;28;20208;-80
2022/10/10 01:41:58;;;;;;;3.77;2.90;;;;;;;8.50;100.00;99126.63;5049266;28;20231;-83
2022/10/10 01:44:28;;;;;;;6.03;3.20;;;;;;;8.58;100.00;99112.03;5048270;28;20321;-80
2022/10/10 01:46:56;;;;;;;5.43;2.80;;;;;;;8.57;100.00;99112.13;5043014;28;20189;-80
2022/10/10 01:49:30;;;;;;;3.63;2.47;;;;;;;8.41;100.00;99121.88;5047250;28;20229;-80
2022/10/10 01:52:08;;;;;;;3.67;2.50;;;;;;;8.45;100.00;99113.69;5045428;28;20220;-80
2022/10/10 01:54:47;;;;;;;4.83;2.50;;;;;;;8.26;100.00;99107.69;5075725;28;20202;-80
2022/10/10 01:57:24;;;;;;;3.43;2.30;;;;;;;8.24;100.00;99099.03;5109465;28;20210;-79
2022/10/10 02:00:03;;;;;;;5.13;2.63;;;;;;;8.07;100.00;99097.31;5115287;28;20197;-80
2022/10/10 02:02:40;;;;;;;4.27;3.03;;;;;;;8.39;100.00;99097.31;5113556;28;20195;-80
2022/10/10 02:05:16;;;;;;;4.67;2.70;;;;;;;8.43;100.00;99085.69;5113913;28;20194;-80
2022/10/10 02:07:49;;;;;;;3.90;2.70;;;;;;;8.29;100.00;99089.03;5108843;28;20244;-80
2022/10/10 02:10:23;;;;;;;3.27;2.57;;;;;;;8.09;100.00;99094.56;5111464;28;20231;-80
2022/10/10 02:12:52;;;;;;;6.17;2.70;;;;;;;8.00;100.00;99088.88;5114741;28;20638;-80
2022/10/10 02:15:26;;;;;;;4.33;2.70;;;;;;;7.99;100.00;99088.94;5114298;28;20191;-80
2022/10/10 02:17:57;;;;;;;8.63;2.97;;;;;;;8.07;100.00;99081.47;5109992;28;20226;-80
2022/10/10 02:20:28;;;;;;;5.30;2.60;;;;;;;7.93;100.00;99079.59;5112991;28;20194;-80
2022/10/10 02:22:57;;;;;;;4.20;2.43;;;;;;;7.90;100.00;99079.75;5085605;28;20224;-80
2022/10/10 02:25:29;;;;;;;4.93;2.40;;;;;;;7.88;100.00;99076.34;5102569;28;20293;-80
2022/10/10 02:28:07;;;;;;;4.07;2.20;;;;;;;7.90;100.00;99079.75;5056169;28;20222;-80
2022/10/10 02:30:40;;;;;;;6.43;2.60;;;;;;;7.89;100.00;99074.56;5104847;28;20206;-80
2022/10/10 02:33:09;;;;;;;4.30;2.60;;;;;;;7.88;100.00;99083.41;5106702;28;20195;-80
2022/10/10 02:35:42;;;;;;;4.70;2.70;;;;;;;7.93;100.00;99078.75;5105023;28;20195;-80
2022/10/10 02:38:14;;;;;;;4.37;2.50;;;;;;;7.81;100.00;99084.66;5106290;28;20194;-80
2022/10/10 02:40:46;;;;;;;3.50;2.43;;;;;;;7.75;100.00;99076.19;5109046;28;20236;-80
2022/10/10 02:43:16;;;;;;;3.57;2.80;;;;;;;7.73;100.00;99079.84;5112791;28;20248;-80
2022/10/10 02:45:47;;;;;;;3.77;2.60;;;;;;;7.69;100.00;99073.00;5114369;28;20191;-80
2022/10/10 02:48:15;;;;;;;4.40;2.70;;;;;;;7.60;100.00;99076.13;5046874;28;20228;-80
2022/10/10 02:50:44;;;;;;;4.73;2.80;;;;;;;7.63;100.00;99074.19;5048072;28;20221;-81
2022/10/10 02:53:14;;;;;;;3.43;2.90;;;;;;;7.71;100.00;99074.63;5045149;28;20200;-80
2022/10/10 02:55:42;;;;;;;6.17;2.63;;;;;;;7.66;100.00;99075.81;5043904;28;20247;-80
2022/10/10 02:58:10;;;;;;;5.47;3.23;;;;;;;7.52;100.00;99076.53;5044387;28;20221;-80
2022/10/10 03:00:39;;;;;;;3.73;2.60;;;;;;;7.47;100.00;99082.06;5044093;28;20235;-80
2022/10/10 03:03:09;;;;;;;5.30;2.90;;;;;;;7.48;100.00;99075.00;5050158;28;20197;-80
2022/10/10 03:05:37;;;;;;;4.90;2.83;;;;;;;7.42;100.00;99070.91;5054662;28;20209;-80
2022/10/10 03:08:06;;;;;;;3.57;2.70;;;;;;;7.38;100.00;99074.63;5107948;28;20561;-80
2022/10/10 03:10:39;;;;;;;5.23;2.90;;;;;;;7.37;100.00;99082.63;5111255;28;20684;-81
2022/10/10 03:13:07;;;;;;;7.30;3.07;;;;;;;7.40;100.00;99074.56;5112236;28;20271;-80
2022/10/10 03:15:35;;;;;;;3.03;2.70;;;;;;;7.45;100.00;99078.66;5112152;28;20202;-80
2022/10/10 03:18:04;;;;;;;5.33;2.97;;;;;;;7.44;100.00;99076.97;5091214;28;20191;-80
2022/10/10 03:20:34;;;;;;;4.50;2.80;;;;;;;7.35;100.00;99073.97;5084125;28;20192;-80
2022/10/10 03:23:03;;;;;;;5.43;3.10;;;;;;;7.42;100.00;99077.94;5075167;28;20608;-80
2022/10/10 03:25:33;;;;;;;4.30;2.97;;;;;;;7.40;100.00;99072.75;5076801;28;20200;-80
2022/10/10 03:28:01;;;;;;;4.37;3.20;;;;;;;7.46;100.00;99075.09;5086091;28;20242;-80
2022/10/10 03:30:30;;;;;;;4.57;3.20;;;;;;;7.41;100.00;99074.47;5086672;28;20192;-80
2022/10/10 03:32:58;;;;;;;7.67;3.00;;;;;;;7.35;100.00;99071.31;5091219;28;20249;-80
2022/10/10 03:35:27;;;;;;;5.63;3.17;;;;;;;7.40;100.00;99070.13;5092160;28;20236;-79
2022/10/10 03:37:58;;;;;;;3.93;3.03;;;;;;;7.35;100.00;99066.06;5111392;28;20191;-80
2022/10/10 03:40:27;;;;;;;8.50;3.53;;;;;;;7.22;100.00;99065.81;5108674;28;20195;-80
2022/10/10 03:42:57;;;;;;;5.50;3.33;;;;;;;7.30;100.00;99065.44;5114731;28;20194;-80
2022/10/10 03:45:25;;;;;;;4.83;3.00;;;;;;;7.28;100.00;99072.56;5109759;28;20312;-82
2022/10/10 03:47:56;;;;;;;4.67;2.80;;;;;;;7.26;100.00;99069.16;5115686;28;20240;-80
2022/10/10 03:50:24;;;;;;;4.27;2.97;;;;;;;7.23;100.00;99067.50;5077289;28;20190;-80
2022/10/10 03:52:53;;;;;;;2.53;2.30;;;;;;;7.16;100.00;99076.69;5109782;28;20275;-80
2022/10/10 03:55:23;;;;;;;4.07;2.93;;;;;;;7.18;100.00;99080.94;5114680;28;20194;-80
2022/10/10 03:57:51;;;;;;;4.83;2.80;;;;;;;7.21;100.00;99072.03;5114569;28;20216;-80
2022/10/10 04:00:20;;;;;;;6.13;3.17;;;;;;;6.96;100.00;99069.81;5117399;28;20203;-80
2022/10/10 04:02:48;;;;;;;5.83;2.90;;;;;;;7.07;100.00;99069.25;5110357;28;20811;-80
2022/10/10 04:05:18;;;;;;;3.93;2.70;;;;;;;6.96;100.00;99066.31;5050678;28;20235;-80
2022/10/10 04:07:47;;;;;;;3.60;2.80;;;;;;;7.07;100.00;99070.09;4990119;28;20191;-80
2022/10/10 04:10:16;;;;;;;4.87;2.87;;;;;;;7.10;100.00;99074.34;4993954;28;20317;-79
2022/10/10 04:12:46;;;;;;;3.87;2.70;;;;;;;7.18;100.00;99074.81;4987096;28;20231;-80
2022/10/10 04:15:14;;;;;;;5.80;2.83;;;;;;;7.02;100.00;99076.53;4989032;28;20196;-80
2022/10/10 04:17:43;;;;;;;4.63;2.77;;;;;;;6.85;100.00;99075.63;4989002;28;20191;-81
2022/10/10 04:20:11;;;;;;;4.17;2.60;;;;;;;6.85;100.00;99072.97;4989499;28;20206;-80
2022/10/10 04:22:41;;;;;;;3.70;2.63;;;;;;;6.76;100.00;99062.91;5007324;28;20262;-80
2022/10/10 04:25:10;;;;;;;7.73;3.30;;;;;;;6.82;100.00;99064.38;5068490;28;20196;-80
2022/10/10 04:27:39;;;;;;;5.13;2.87;;;;;;;6.90;100.00;99064.84;5012787;28;20199;-80
2022/10/10 04:30:11;;;;;;;6.50;3.70;;;;;;;6.86;100.00;99064.16;5009655;28;20342;-79
2022/10/10 04:32:40;;;;;;;6.23;3.30;;;;;;;6.93;100.00;99067.31;4964641;28;20260;-81
2022/10/10 04:35:08;;;;;;;37.93;20.83;;;;;;;6.95;100.00;99070.75;4965918;28;20256;-80
2022/10/10 04:37:37;;;;;;;7.20;5.17;;;;;;;6.75;100.00;99071.72;4972544;28;20240;-80
2022/10/10 04:40:05;;;;;;;8.13;4.50;;;;;;;6.70;100.00;99065.84;4969336;28;20231;-80
2022/10/10 04:42:34;;;;;;;5.63;3.47;;;;;;;6.70;100.00;99070.25;4942082;28;20200;-80
2022/10/10 04:45:02;;;;;;;6.07;3.20;;;;;;;6.80;100.00;99071.50;4967096;28;20245;-80
2022/10/10 04:47:32;;;;;;;4.10;3.07;;;;;;;6.79;100.00;99077.69;4974753;28;20722;-80
2022/10/10 04:50:00;;;;;;;5.37;3.47;;;;;;;6.78;100.00;99076.84;4940736;28;20212;-80
2022/10/10 04:52:29;;;;;;;3.53;2.70;;;;;;;6.73;100.00;99073.56;5027203;28;20218;-80
2022/10/10 04:54:57;;;;;;;6.80;2.53;;;;;;;6.53;100.00;99078.97;5071715;28;20184;-80
2022/10/10 04:57:26;;;;;;;4.33;2.90;;;;;;;6.46;100.00;99085.44;5093625;28;20188;-80
2022/10/10 04:59:54;;;;;;;3.80;2.50;;;;;;;6.52;100.00;99087.78;5115947;28;20191;-80
2022/10/10 05:02:23;;;;;;;3.00;2.57;;;;;;;6.36;100.00;99095.56;5107860;28;20282;-80
2022/10/10 05:04:53;;;;;;;4.10;2.90;;;;;;;6.24;100.00;99097.00;5110411;28;20244;-80
2022/10/10 05:07:22;;;;;;;3.77;2.77;;;;;;;6.36;100.00;99100.81;5115441;27;20199;-80
2022/10/10 05:09:51;;;;;;;4.30;3.03;;;;;;;6.35;100.00;99098.28;5112426;28;20253;-80
2022/10/10 05:12:23;;;;;;;4.50;2.90;;;;;;;6.46;100.00;99088.06;5114762;27;20223;-80
2022/10/10 05:14:51;;;;;;;5.97;3.70;;;;;;;6.39;100.00;99099.84;5079393;28;20198;-80
2022/10/10 05:17:20;;;;;;;5.23;3.60;;;;;;;6.58;100.00;99090.13;5113643;28;20245;-80
2022/10/10 05:19:50;;;;;;;8.87;4.20;;;;;;;6.62;100.00;99088.19;5115718;28;20657;-81
2022/10/10 05:22:20;;;;;;;8.43;4.67;;;;;;;6.63;100.00;99085.50;5110882;28;20205;-81
2022/10/10 05:24:48;;;;;;;8.30;4.10;;;;;;;6.70;100.00;99092.16;5108885;28;20646;-81
2022/10/10 05:27:17;;;;;;;6.53;4.83;;;;;;;6.54;100.00;99093.81;5115403;28;20199;-80
2022/10/10 05:29:45;;;;;;;6.00;4.20;;;;;;;6.60;100.00;99088.28;5115818;28;20248;-79
2022/10/10 05:32:13;;;;;;;5.47;4.27;;;;;;;6.60;100.00;99083.88;5096730;28;20292;-80
2022/10/10 05:34:42;;;;;;;7.07;4.40;;;;;;;6.40;100.00;99083.97;5109781;28;20209;-80
2022/10/10 05:37:11;;;;;;;10.70;5.33;;;;;;;6.47;100.00;99089.81;5117010;27;20195;-80
2022/10/10 05:39:41;;;;;;;12.70;6.07;;;;;;;6.52;100.00;99083.38;5114525;28;20206;-80
2022/10/10 05:42:10;;;;;;;49.90;27.73;;;;;;;6.64;100.00;99083.72;5112466;28;20191;-80
2022/10/10 05:44:39;;;;;;;45.13;20.00;;;;;;;6.50;100.00;99084.38;5105995;28;20226;-80
2022/10/10 05:47:08;;;;;;;14.47;7.27;;;;;;;6.56;100.00;99081.44;5113069;28;20191;-80
2022/10/10 05:49:36;;;;;;;12.03;5.30;;;;;;;6.53;100.00;99087.72;5115341;28;20226;-80
2022/10/10 05:52:04;;;;;;;11.33;5.90;;;;;;;6.49;100.00;99082.69;5109941;28;20199;-80
2022/10/10 05:54:33;;;;;;;7.87;3.90;;;;;;;6.47;100.00;99090.66;5104564;28;20212;-80
2022/10/10 05:57:03;;;;;;;6.67;3.43;;;;;;;6.53;100.00;99089.50;5107076;28;20205;-81
2022/10/10 05:59:32;;;;;;;6.33;4.00;;;;;;;6.55;100.00;99090.25;5080689;28;20236;-80
2022/10/10 06:02:00;;;;;;;9.70;5.60;;;;;;;6.62;100.00;99086.41;5110901;28;20187;-80
2022/10/10 06:04:28;;;;;;;10.10;4.00;;;;;;;6.70;100.00;99081.63;5113701;28;20183;-79
2022/10/10 06:06:57;;;;;;;8.97;4.27;;;;;;;6.74;100.00;99082.31;5107958;28;20183;-80
2022/10/10 06:09:25;;;;;;;6.87;4.83;;;;;;;6.79;100.00;99075.06;5110072;28;20355;-80
2022/10/10 06:11:53;;;;;;;8.97;5.80;;;;;;;6.78;100.00;99076.84;5074943;28;20228;-80
2022/10/10 06:14:23;;;;;;;11.80;6.60;;;;;;;6.84;100.00;99086.19;5064969;28;20231;-80
2022/10/10 06:16:52;;;;;;;11.77;7.33;;;;;;;6.81;100.00;99079.31;5021561;28;20196;-80
2022/10/10 06:19:20;;;;;;;9.60;6.73;;;;;;;6.86;100.00;99079.94;5067533;28;20188;-80
2022/10/10 06:21:49;;;;;;;14.57;7.90;;;;;;;6.80;100.00;99088.16;5064459;28;20188;-80
2022/10/10 06:24:18;;;;;;;23.60;8.07;;;;;;;7.07;100.00;99079.78;5061588;28;20269;-80
2022/10/10 06:26:46;;;;;;;13.57;7.77;;;;;;;7.29;100.00;99069.00;5065779;28;20203;-80
2022/10/10 06:29:15;;;;;;;13.40;5.40;;;;;;;7.06;100.00;99081.56;5074438;28;20187;-80
2022/10/10 06:31:45;;;;;;;13.90;6.20;;;;;;;6.99;100.00;99082.81;5107291;28;20226;-80
2022/10/10 06:34:13;;;;;;;14.87;7.53;;;;;;;7.34;100.00;99083.66;5113308;27;20280;-80
2022/10/10 06:36:42;;;;;;;11.93;6.03;;;;;;;7.42;100.00;99093.75;5109860;28;20258;-80
2022/10/10 06:39:13;;;;;;;10.97;5.80;;;;;;;7.51;100.00;99095.91;5112904;28;20263;-80
2022/10/10 06:41:41;;;;;;;12.93;6.33;;;;;;;7.74;100.00;99097.34;5108893;28;20218;-80
2022/10/10 06:44:09;;;;;;;9.30;5.80;;;;;;;7.73;100.00;99098.28;5114061;28;20195;-80
2022/10/10 06:46:37;;;;;;;17.17;9.13;;;;;;;7.55;100.00;99102.75;5113681;28;20232;-81
2022/10/10 06:49:09;;;;;;;24.93;10.30;;;;;;;7.64;100.00;99104.91;5110351;28;20206;-81
2022/10/10 06:51:38;;;;;;;12.77;6.80;;;;;;;7.46;100.00;99106.72;5112231;28;20653;-81
2022/10/10 06:54:06;;;;;;;13.00;5.37;;;;;;;7.47;100.00;99104.94;5107893;28;20273;-81
2022/10/10 06:56:36;;;;;;;9.53;5.57;;;;;;;7.64;100.00;99107.53;5111346;28;20226;-80
2022/10/10 06:59:04;;;;;;;10.87;4.70;;;;;;;7.69;100.00;99107.28;5109452;28;20293;-80
2022/10/10 07:01:33;;;;;;;7.17;5.27;;;;;;;7.63;100.00;99107.63;5107009;28;20244;-80
2022/10/10 07:04:02;;;;;;;6.57;5.23;;;;;;;7.79;100.00;99112.91;5111878;28;20708;-80
2022/10/10 07:06:32;;;;;;;11.37;5.40;;;;;;;7.72;100.00;99125.56;5106201;28;20191;-80
2022/10/10 07:09:02;;;;;;;8.40;5.50;;;;;;;7.68;100.00;99124.03;5108610;28;20199;-80
2022/10/10 07:11:31;;;;;;;9.33;5.47;;;;;;;7.73;100.00;99116.75;5108440;28;20199;-80
2022/10/10 07:13:59;;;;;;;9.30;4.57;;;;;;;8.06;100.00;99121.97;5109316;28;20218;-80
2022/10/10 07:16:28;;;;;;;6.40;5.10;;;;;;;8.05;100.00;99125.56;5105511;28;20236;-80
2022/10/10 07:18:56;;;;;;;8.47;5.17;;;;;;;8.19;100.00;99127.44;5105143;28;20217;-80
2022/10/10 07:21:24;;;;;;;6.13;4.67;;;;;;;8.35;100.00;99136.25;5116291;27;20195;-80
2022/10/10 07:23:54;;;;;;;5.40;4.47;;;;;;;8.26;100.00;99140.22;5090325;28;20194;-80
2022/10/10 07:26:26;;;;;;;8.67;5.40;;;;;;;8.45;100.00;99134.78;5109149;28;20217;-80
2022/10/10 07:28:54;;;;;;;9.23;5.07;;;;;;;8.61;100.00;99145.38;5114239;28;20226;-80
2022/10/10 07:31:23;;;;;;;6.80;4.60;;;;;;;8.86;100.00;99142.16;5110017;28;20199;-79
2022/10/10 07:33:51;;;;;;;9.30;5.07;;;;;;;8.98;100.00;99138.00;5113234;28;20211;-80
2022/10/10 07:36:20;;;;;;;8.93;5.03;;;;;;;9.06;100.00;99143.66;5115905;27;20244;-80
2022/10/10 07:38:53;;;;;;;7.70;4.67;;;;;;;9.20;100.00;99143.72;5106935;28;20290;-81
2022/10/10 07:41:27;;;;;;;10.83;5.37;;;;;;;9.44;100.00;99142.25;5111343;28;20201;-80
2022/10/10 07:43:56;;;;;;;7.80;4.70;;;;;;;9.57;100.00;99145.03;5109438;28;20191;-80
2022/10/10 07:46:24;;;;;;;7.70;4.53;;;;;;;9.80;100.00;99148.91;5114003;28;20218;-80
2022/10/10 07:48:56;;;;;;;6.30;4.33;;;;;;;9.84;100.00;99150.41;5107285;28;20278;-80
2022/10/10 07:51:24;;;;;;;8.50;4.20;;;;;;;9.94;100.00;99161.28;5112435;28;20194;-80
2022/10/10 07:53:55;;;;;;;8.87;4.50;;;;;;;10.13;100.00;99159.22;5112342;28;20257;-81
2022/10/10 07:56:26;;;;;;;5.50;3.50;;;;;;;10.20;100.00;99152.59;5112200;28;20191;-80
2022/10/10 07:58:54;;;;;;;8.07;3.97;;;;;;;10.32;100.00;99154.50;5111431;28;20203;-80
2022/10/10 08:01:24;;;;;;;10.23;4.30;;;;;;;10.53;100.00;99154.97;5107730;28;20207;-81
2022/10/10 08:03:52;;;;;;;7.50;4.40;;;;;;;10.46;100.00;99151.00;5048238;28;20224;-80
2022/10/10 08:06:21;;;;;;;6.53;4.43;;;;;;;10.58;100.00;99147.56;5047380;28;20231;-81
2022/10/10 08:08:53;;;;;;;7.60;3.47;;;;;;;10.71;100.00;99136.16;5044866;28;20672;-80
2022/10/10 08:11:22;;;;;;;4.90;3.57;;;;;;;10.83;100.00;99138.88;5048017;28;20271;-81
2022/10/10 08:13:52;;;;;;;6.37;3.37;;;;;;;10.99;100.00;99136.06;5047174;28;20220;-80
2022/10/10 08:16:21;;;;;;;4.37;3.13;;;;;;;10.99;100.00;99141.34;5045484;28;20260;-81
2022/10/10 08:18:50;;;;;;;7.33;3.50;;;;;;;11.00;100.00;99139.56;5001946;28;20193;-81
2022/10/10 08:21:18;;;;;;;6.90;3.30;;;;;;;11.13;100.00;99136.00;5052486;28;20251;-81
2022/10/10 08:23:47;;;;;;;8.93;3.97;;;;;;;11.23;100.00;99135.41;5111632;28;20198;-81
2022/10/10 08:26:18;;;;;;;5.10;3.40;;;;;;;11.18;100.00;99135.69;5112708;28;20272;-81
2022/10/10 08:28:47;;;;;;;5.90;3.43;;;;;;;11.30;100.00;99123.44;5111554;28;20195;-81
2022/10/10 08:31:20;;;;;;;5.67;3.50;;;;;;;11.31;100.00;99123.31;5113337;28;20672;-80
2022/10/10 08:33:50;;;;;;;8.10;3.47;;;;;;;11.39;100.00;99125.47;5112402;28;20283;-80
2022/10/10 08:36:21;;;;;;;9.70;4.00;;;;;;;11.63;100.00;99133.53;5113048;28;20232;-80
2022/10/10 08:38:51;;;;;;;5.77;3.77;;;;;;;11.55;100.00;99133.19;5115207;28;20218;-80
2022/10/10 08:41:28;;;;;;;6.67;3.93;;;;;;;11.60;100.00;99123.13;5114872;28;20198;-80
2022/10/10 08:44:01;;;;;;;6.50;3.77;;;;;;;11.64;100.00;99130.78;5119746;27;20225;-80
2022/10/10 08:46:39;;;;;;;8.43;3.70;;;;;;;11.66;100.00;99122.69;5114214;28;20191;-80
2022/10/10 08:49:20;;;;;;;5.60;3.47;;;;;;;11.91;100.00;99117.44;5113007;28;20195;-80
2022/10/10 08:51:55;;;;;;;6.83;3.73;;;;;;;12.27;100.00;99121.94;5113503;28;20191;-81
2022/10/10 08:54:26;;;;;;;5.57;4.13;;;;;;;12.15;100.00;99108.66;5106976;28;20268;-81
2022/10/10 08:56:59;;;;;;;5.93;3.77;;;;;;;11.98;100.00;99109.88;5116900;28;20253;-81
2022/10/10 08:59:33;;;;;;;8.37;4.40;;;;;;;12.25;100.00;99110.56;5114298;28;20240;-81
2022/10/10 09:02:25;;;;;;;9.00;3.97;;;;;;;12.37;100.00;99108.84;5108382;28;20425;-80
2022/10/10 09:05:17;;;;;;;8.90;4.40;;;;;;;12.75;100.00;99114.03;5116589;28;20294;-81
2022/10/10 09:08:11;;;;;;;10.80;4.73;;;;;;;12.88;100.00;99109.50;5114435;27;20195;-81
2022/10/10 09:10:51;;;;;;;5.80;4.20;;;;;;;13.14;100.00;99107.56;5112050;28;20230;-81
2022/10/10 09:13:30;;;;;;;6.20;4.30;;;;;;;13.31;100.00;99108.09;5111401;28;20244;-81
2022/10/10 09:16:02;;;;;;;9.47;5.17;;;;;;;13.38;100.00;99104.88;5115547;27;20264;-81
2022/10/10 09:18:54;;;;;;;8.87;5.30;;;;;;;12.86;100.00;99106.09;5111219;28;20187;-81
2022/10/10 09:21:26;;;;;;;12.10;5.07;;;;;;;13.21;100.00;99088.47;5115643;27;20199;-80
2022/10/10 09:24:02;;;;;;;9.93;4.63;;;;;;;13.33;100.00;99082.25;5108956;28;20251;-81
2022/10/10 09:26:35;;;;;;;7.83;4.73;;;;;;;13.45;100.00;99095.44;5107609;28;20190;-80
2022/10/10 09:29:15;;;;;;;7.27;5.13;;;;;;;13.71;100.00;99100.59;5115634;28;20187;-80
2022/10/10 09:31:49;;;;;;;7.13;4.97;;;;;;;13.95;100.00;99098.66;5115969;28;20187;-80
2022/10/10 09:34:28;;;;;;;7.37;5.50;;;;;;;13.75;100.00;99088.72;5080460;28;20267;-81
2022/10/10 09:37:01;;;;;;;9.37;5.80;;;;;;;13.98;100.00;99101.06;5108054;28;20625;-80
2022/10/10 09:39:37;;;;;;;7.13;5.00;;;;;;;14.04;100.00;99091.75;5113755;28;20214;-81
2022/10/10 09:42:11;;;;;;;8.03;6.00;;;;;;;14.08;100.00;99097.66;5110294;28;20190;-80
2022/10/10 09:44:42;;;;;;;11.00;5.40;;;;;;;14.21;100.00;99096.59;5115210;28;20195;-80
2022/10/10 09:47:12;;;;;;;7.50;4.70;;;;;;;14.25;100.00;99084.69;5116523;28;20195;-81
2022/10/10 09:49:43;;;;;;;8.40;6.07;;;;;;;14.57;100.00;99094.59;5113747;27;20252;-80
2022/10/10 09:52:26;;;;;;;6.83;5.20;;;;;;;14.65;100.00;99092.16;5068941;28;20690;-80
2022/10/10 09:54:59;;;;;;;10.40;5.37;;;;;;;14.92;100.00;99096.19;5066464;28;20240;-80
2022/10/10 09:57:34;;;;;;;8.17;5.83;;;;;;;15.06;100.00;99098.59;5069549;28;20305;-81
2022/10/10 10:00:26;;;;;;;6.97;5.20;;;;;;;14.92;100.00;99098.88;5066997;28;20227;-80
2022/10/10 10:03:11;;;;;;;6.87;5.30;;;;;;;15.39;100.00;99084.22;5067713;28;20294;-81
2022/10/10 10:05:44;;;;;;;8.47;5.90;;;;;;;15.66;100.00;99075.69;5072407;28;20195;-81
2022/10/10 10:08:34;;;;;;;7.60;5.53;;;;;;;15.80;100.00;99088.69;5068263;28;20238;-80
2022/10/10 10:11:04;;;;;;;8.40;5.60;;;;;;;15.82;100.00;99084.06;5092253;28;20701;-81
2022/10/10 10:13:36;;;;;;;6.63;5.40;;;;;;;15.95;100.00;99081.19;5112888;28;20199;-81
2022/10/10 10:16:09;;;;;;;7.80;5.77;;;;;;;16.05;100.00;99081.22;5110363;28;20215;-81
2022/10/10 10:18:42;;;;;;;10.73;6.10;;;;;;;15.92;100.00;99084.97;5111182;28;20183;-81
2022/10/10 10:21:18;;;;;;;10.23;6.50;;;;;;;16.00;100.00;99079.78;5114916;28;20198;-81
2022/10/10 10:23:56;;;;;;;10.73;6.20;;;;;;;16.35;100.00;99083.00;5107825;28;20202;-81
2022/10/10 10:26:30;;;;;;;7.90;6.07;;;;;;;16.25;100.00;99088.31;5111841;28;20703;-80
2022/10/10 10:29:00;;;;;;;9.90;6.93;;;;;;;16.37;100.00;99081.88;5114564;28;20650;-81
2022/10/10 10:31:44;;;;;;;7.87;6.30;;;;;;;16.27;100.00;99081.84;5104502;28;20191;-81
2022/10/10 10:34:50;;;;;;;10.07;6.57;;;;;;;16.59;100.00;99081.63;5108572;28;20251;-80
2022/10/10 10:37:23;;;;;;;13.30;6.90;;;;;;;16.16;100.00;99087.31;5052392;28;20202;-81
2022/10/10 10:40:18;;;;;;;10.13;7.03;;;;;;;16.71;100.00;99093.13;5106968;28;20191;-81
2022/10/10 10:43:08;;;;;;;9.53;6.17;;;;;;;16.69;100.00;99091.53;5111093;28;20217;-81
2022/10/10 10:45:45;;;;;;;9.60;6.70;;;;;;;16.80;100.00;99097.63;5108532;28;20198;-81
2022/10/10 10:48:22;;;;;;;14.07;7.03;;;;;;;16.67;100.00;99105.03;5104708;28;20194;-81
2022/10/10 10:50:55;;;;;;;10.93;6.77;;;;;;;16.99;100.00;99106.66;5109251;28;20229;-81
2022/10/10 10:53:37;;;;;;;10.93;6.37;;;;;;;16.76;100.00;99103.38;5108319;28;20208;-81
2022/10/10 10:56:19;;;;;;;8.90;6.97;;;;;;;17.14;100.00;99095.38;5108906;28;20284;-81
2022/10/10 10:59:18;;;;;;;10.80;7.40;;;;;;;17.61;100.00;99098.16;5061574;28;20208;-81
2022/10/10 11:02:33;;;;;;;10.13;6.60;;;;;;;17.66;100.00;99100.38;5072001;28;20799;-81
2022/10/10 11:05:48;;;;;;;12.20;7.13;;;;;;;17.97;100.00;99091.16;5071848;28;20291;-81
2022/10/10 11:08:40;;;;;;;13.43;6.93;;;;;;;18.05;100.00;99087.75;5064135;28;20197;-81
2022/10/10 11:11:34;;;;;;;10.57;6.83;;;;;;;17.85;100.00;99083.44;5070009;28;20230;-81
2022/10/10 11:14:15;;;;;;;13.60;7.47;;;;;;;17.90;100.00;99079.34;5064402;28;20200;-81
2022/10/10 11:16:47;;;;;;;10.47;7.00;;;;;;;17.88;100.00;99083.16;5081103;28;20287;-81
2022/10/10 11:19:27;;;;;;;10.03;7.50;;;;;;;17.69;100.00;99084.91;5107560;28;20278;-81
2022/10/10 11:22:02;;;;;;;11.10;6.90;;;;;;;17.78;100.00;99085.03;5113779;28;20273;-81
2022/10/10 11:24:41;;;;;;;11.30;7.07;;;;;;;18.05;100.00;99081.53;5112675;28;20190;-81
2022/10/10 11:27:18;;;;;;;8.93;7.40;;;;;;;18.01;100.00;99087.19;5111547;28;20191;-80
2022/10/10 11:29:54;;;;;;;10.23;7.30;;;;;;;18.09;100.00;99080.25;5101593;28;20198;-80
2022/10/10 11:32:28;;;;;;;10.63;7.17;;;;;;;17.97;100.00;99080.44;5111575;28;20193;-81
2022/10/10 11:35:19;;;;;;;13.53;7.17;;;;;;;18.08;100.00;99066.00;5070737;28;20258;-80
2022/10/10 11:37:54;;;;;;;9.33;6.93;;;;;;;18.38;100.00;99072.06;5067494;28;20749;-81
2022/10/10 11:40:50;;;;;;;12.40;7.70;;;;;;;18.40;100.00;99068.25;5068349;28;20275;-80
2022/10/10 11:43:28;;;;;;;10.77;7.20;;;;;;;18.64;100.00;99070.38;5063386;28;20694;-81
2022/10/10 11:46:08;;;;;;;9.20;7.37;;;;;;;18.84;100.00;99076.47;5071603;28;20282;-80
2022/10/10 11:48:46;;;;;;;9.07;6.43;;;;;;;19.19;100.00;99069.38;5065530;28;20192;-80
2022/10/10 11:51:26;;;;;;;10.23;6.63;;;;;;;19.15;100.00;99075.06;5069720;28;20242;-81
2022/10/10 11:54:01;;;;;;;10.80;6.83;;;;;;;19.05;100.00;99076.16;5099270;28;20199;-80
2022/10/10 11:56:38;;;;;;;11.50;7.20;;;;;;;18.95;100.00;99076.22;5108212;28;20255;-81